createdAt,value
2022-12-31T00:00:03.210Z,99581.59
2022-12-31T00:01:06.868Z,99588.63
2022-12-31T00:02:08.620Z,99587.53
2022-12-31T00:03:12.790Z,99586.31
2022-12-31T00:04:14.594Z,99584.56
2022-12-31T00:05:17.471Z,99587.78
2022-12-31T00:06:24.238Z,99589.84
2022-12-31T00:07:26.915Z,99594.44
2022-12-31T00:08:28.584Z,99601.16
2022-12-31T00:09:31.260Z,99598.47
2022-12-31T00:10:39.934Z,99603.59
2022-12-31T00:11:42.663Z,99596.34
2022-12-31T00:12:44.387Z,99590.53
2022-12-31T00:13:47.691Z,99604.50
2022-12-31T00:14:49.480Z,99602.28
2022-12-31T00:15:52.220Z,99582.66
2022-12-31T00:16:53.993Z,99599.47
2022-12-31T00:17:56.701Z,99596.41
2022-12-31T00:19:00.591Z,99604.66
2022-12-31T00:20:03.280Z,99610.16
2022-12-31T00:21:06.543Z,99595.34
2022-12-31T00:22:09.304Z,99599.00
2022-12-31T00:23:11.535Z,99598.31
2022-12-31T00:24:14.220Z,99594.28
2022-12-31T00:25:16.102Z,99592.13
2022-12-31T00:26:21.005Z,99589.97
2022-12-31T00:27:22.823Z,99588.41
2022-12-31T00:28:25.496Z,99602.16
2022-12-31T00:29:27.203Z,99593.09
2022-12-31T00:30:29.895Z,99580.41
2022-12-31T00:31:32.850Z,99595.84
2022-12-31T00:32:35.609Z,99590.59
2022-12-31T00:33:37.281Z,99600.50
2022-12-31T00:34:41.365Z,99605.13
2022-12-31T00:35:43.130Z,99602.53
2022-12-31T00:36:46.136Z,99602.38
2022-12-31T00:37:48.000Z,99591.91
2022-12-31T00:38:53.274Z,99584.47
2022-12-31T00:39:55.025Z,99584.34
2022-12-31T00:40:57.743Z,99586.75
2022-12-31T00:42:00.413Z,99594.34
2022-12-31T00:43:02.191Z,99597.25
2022-12-31T00:44:05.076Z,99594.97
2022-12-31T00:45:07.990Z,99587.22
2022-12-31T00:46:11.806Z,99607.94
2022-12-31T00:47:13.693Z,99605.66
2022-12-31T00:48:16.376Z,99604.94
2022-12-31T00:49:18.178Z,99613.03
2022-12-31T00:50:22.201Z,99604.13
2022-12-31T00:51:26.819Z,99604.13
2022-12-31T00:52:29.539Z,99617.88
2022-12-31T00:53:31.271Z,99620.63
2022-12-31T00:54:34.032Z,99614.59
2022-12-31T00:55:35.699Z,99609.72
2022-12-31T00:56:38.462Z,99621.47
2022-12-31T00:57:40.233Z,99634.16
2022-12-31T00:58:43.225Z,99625.88
2022-12-31T00:59:45.062Z,99620.94
2022-12-31T01:00:47.821Z,99624.91
2022-12-31T01:01:50.184Z,99624.41
2022-12-31T01:02:53.109Z,99631.22
2022-12-31T01:03:58.894Z,99625.13
2022-12-31T01:05:00.677Z,99633.78
2022-12-31T01:06:05.101Z,99631.75
2022-12-31T01:07:06.782Z,99637.59
2022-12-31T01:08:09.533Z,99645.13
2022-12-31T01:09:12.670Z,99630.38
2022-12-31T01:10:35.408Z,99646.63
2022-12-31T01:11:37.102Z,99640.06
2022-12-31T01:12:39.798Z,99636.72
2022-12-31T01:13:41.522Z,99636.25
2022-12-31T01:14:45.569Z,99652.28
2022-12-31T01:15:47.313Z,99643.34
2022-12-31T01:16:51.714Z,99644.28
2022-12-31T01:17:53.538Z,99654.81
2022-12-31T01:18:56.589Z,99654.81
2022-12-31T01:19:58.365Z,99649.16
2022-12-31T01:21:04.690Z,99651.44
2022-12-31T01:22:07.384Z,99651.69
2022-12-31T01:23:10.131Z,99655.44
2022-12-31T01:24:13.621Z,99657.78
2022-12-31T01:25:15.470Z,99662.06
2022-12-31T01:26:19.545Z,99663.69
2022-12-31T01:27:21.281Z,99667.19
2022-12-31T01:28:23.914Z,99666.19
2022-12-31T01:29:25.794Z,99657.88
2022-12-31T01:30:28.610Z,99663.75
2022-12-31T01:31:30.467Z,99658.47
2022-12-31T01:32:33.273Z,99664.66
2022-12-31T01:33:35.382Z,99668.94
2022-12-31T01:34:40.911Z,99665.81
2022-12-31T01:35:42.640Z,99670.00
2022-12-31T01:36:46.773Z,99665.47
2022-12-31T01:37:48.519Z,99664.59
2022-12-31T01:38:51.377Z,99670.16
2022-12-31T01:39:53.081Z,99658.72
2022-12-31T01:40:55.806Z,99670.97
2022-12-31T01:41:59.459Z,99682.13
2022-12-31T01:43:01.113Z,99675.78
2022-12-31T01:44:24.539Z,99673.75
2022-12-31T01:45:26.682Z,99684.56
2022-12-31T01:46:35.454Z,99674.94
2022-12-31T01:47:40.008Z,99676.47
2022-12-31T01:48:42.911Z,99680.66
2022-12-31T01:49:47.002Z,99691.22
2022-12-31T01:50:50.016Z,99686.94
2022-12-31T01:51:56.312Z,99683.72
2022-12-31T01:53:01.658Z,99688.16
2022-12-31T01:54:04.658Z,99690.97
2022-12-31T01:55:11.257Z,99677.34
2022-12-31T01:56:13.093Z,99683.66
2022-12-31T01:57:16.289Z,99678.53
2022-12-31T01:58:20.896Z,99671.00
2022-12-31T01:59:24.385Z,99681.09
2022-12-31T02:00:26.090Z,99671.41
2022-12-31T02:01:30.637Z,99683.78
2022-12-31T02:02:32.801Z,99656.94
2022-12-31T02:03:36.085Z,99676.69
2022-12-31T02:04:37.795Z,99675.78
2022-12-31T02:05:44.090Z,99666.81
2022-12-31T02:06:49.303Z,99672.19
2022-12-31T02:07:53.612Z,99671.00
2022-12-31T02:08:57.041Z,99654.13
2022-12-31T02:09:59.112Z,99657.03
2022-12-31T02:11:01.767Z,99652.13
2022-12-31T02:12:03.621Z,99658.25
2022-12-31T02:13:06.484Z,99652.28
2022-12-31T02:14:10.051Z,99652.00
2022-12-31T02:15:12.861Z,99661.16
2022-12-31T02:16:19.702Z,99657.41
2022-12-31T02:17:32.304Z,99662.84
2022-12-31T02:18:38.994Z,99670.50
2022-12-31T02:20:02.138Z,99652.97
2022-12-31T02:21:20.266Z,99654.34
2022-12-31T02:22:30.563Z,99658.56
2022-12-31T02:23:51.202Z,99655.59
2022-12-31T02:25:15.659Z,99675.53
2022-12-31T02:26:30.918Z,99661.00
2022-12-31T02:27:42.512Z,99657.56
2022-12-31T02:29:00.636Z,99644.19
2022-12-31T02:30:14.271Z,99656.03
2022-12-31T02:31:19.112Z,99654.88
2022-12-31T02:32:25.003Z,99660.66
2022-12-31T02:33:30.848Z,99654.44
2022-12-31T02:34:35.557Z,99639.22
2022-12-31T02:35:42.048Z,99680.28
2022-12-31T02:36:46.982Z,99648.94
2022-12-31T02:37:53.121Z,99653.81
2022-12-31T02:38:56.115Z,99657.25
2022-12-31T02:39:58.371Z,99674.84
2022-12-31T02:41:01.331Z,99658.78
2022-12-31T02:42:03.654Z,99658.34
2022-12-31T02:43:06.718Z,99659.31
2022-12-31T02:44:21.486Z,99671.56
2022-12-31T02:45:31.193Z,99667.13
2022-12-31T02:46:37.386Z,99655.72
2022-12-31T02:47:51.792Z,99658.75
2022-12-31T02:48:56.563Z,99647.38
2022-12-31T02:50:23.576Z,99645.53
2022-12-31T02:51:34.068Z,99668.47
2022-12-31T02:52:43.411Z,99664.19
2022-12-31T02:54:12.856Z,99674.59
2022-12-31T02:55:19.464Z,99673.66
2022-12-31T02:56:24.459Z,99673.31
2022-12-31T02:57:30.664Z,99670.44
2022-12-31T02:58:55.973Z,99663.97
2022-12-31T03:00:17.850Z,99664.25
2022-12-31T03:01:42.176Z,99676.00
2022-12-31T03:02:47.087Z,99688.56
2022-12-31T03:04:08.821Z,99675.44
2022-12-31T03:05:11.989Z,99675.91
2022-12-31T03:06:13.706Z,99671.13
2022-12-31T03:07:20.360Z,99674.00
2022-12-31T03:08:23.190Z,99692.31
2022-12-31T03:09:25.828Z,99710.03
2022-12-31T03:10:28.552Z,99691.25
2022-12-31T03:11:54.212Z,99701.63
2022-12-31T03:12:56.039Z,99689.69
2022-12-31T03:13:57.728Z,99703.69
2022-12-31T03:15:00.646Z,99672.22
2022-12-31T03:16:03.351Z,99674.22
2022-12-31T03:17:06.635Z,99697.84
2022-12-31T03:18:11.047Z,99678.97
2022-12-31T03:19:31.322Z,99683.28
2022-12-31T03:20:54.106Z,99685.19
2022-12-31T03:22:14.342Z,99672.88
2022-12-31T03:23:20.886Z,99687.16
2022-12-31T03:24:42.150Z,99667.72
2022-12-31T03:25:44.034Z,99665.81
2022-12-31T03:26:45.740Z,99672.34
2022-12-31T03:27:49.091Z,99671.75
2022-12-31T03:28:50.806Z,99705.38
2022-12-31T03:29:53.575Z,99680.44
2022-12-31T03:30:58.290Z,99675.88
2022-12-31T03:32:00.100Z,99682.84
2022-12-31T03:33:05.138Z,99683.19
2022-12-31T03:34:06.925Z,99670.25
2022-12-31T03:35:11.967Z,99708.84
2022-12-31T03:36:14.779Z,99677.06
2022-12-31T03:37:17.478Z,99688.72
2022-12-31T03:38:20.410Z,99696.31
2022-12-31T03:39:22.070Z,99678.72
2022-12-31T03:40:26.232Z,99679.56
2022-12-31T03:41:27.920Z,99694.41
2022-12-31T03:42:30.576Z,99674.44
2022-12-31T03:43:33.309Z,99693.38
2022-12-31T03:44:35.177Z,99689.97
2022-12-31T03:45:38.390Z,99688.81
2022-12-31T03:46:40.137Z,99678.94
2022-12-31T03:47:43.127Z,99682.78
2022-12-31T03:48:46.330Z,99689.72
2022-12-31T03:49:48.985Z,99704.97
2022-12-31T03:50:51.951Z,99725.38
2022-12-31T03:51:53.648Z,99676.72
2022-12-31T03:52:56.430Z,99692.13
2022-12-31T03:53:58.116Z,99677.28
2022-12-31T03:55:01.606Z,99681.69
2022-12-31T03:56:04.610Z,99680.88
2022-12-31T03:57:06.298Z,99677.78
2022-12-31T03:58:09.061Z,99681.84
2022-12-31T03:59:11.011Z,99685.19
2022-12-31T04:00:17.651Z,99712.91
2022-12-31T04:01:19.674Z,99688.19
2022-12-31T04:02:28.320Z,99687.94
2022-12-31T04:03:30.790Z,99694.19
2022-12-31T04:04:34.964Z,99700.91
2022-12-31T04:05:37.661Z,99702.47
2022-12-31T04:06:39.378Z,99698.75
2022-12-31T04:07:42.576Z,99676.00
2022-12-31T04:08:44.377Z,99705.91
2022-12-31T04:09:47.160Z,99704.28
2022-12-31T04:10:48.885Z,99697.44
2022-12-31T04:11:51.623Z,99714.81
2022-12-31T04:12:54.273Z,99704.13
2022-12-31T04:13:56.063Z,99707.59
2022-12-31T04:14:58.846Z,99718.63
2022-12-31T04:16:00.617Z,99706.69
2022-12-31T04:17:03.335Z,99718.78
2022-12-31T04:18:06.222Z,99721.88
2022-12-31T04:19:07.906Z,99717.66
2022-12-31T04:20:12.609Z,99717.22
2022-12-31T04:21:14.307Z,99724.00
2022-12-31T04:22:17.021Z,99713.59
2022-12-31T04:23:18.965Z,99722.59
2022-12-31T04:24:21.701Z,99719.97
2022-12-31T04:25:23.573Z,99722.72
2022-12-31T04:26:26.256Z,99736.28
2022-12-31T04:27:28.982Z,99748.03
2022-12-31T04:28:30.673Z,99731.84
2022-12-31T04:29:33.316Z,99734.47
2022-12-31T04:30:35.048Z,99722.88
2022-12-31T04:31:37.996Z,99725.97
2022-12-31T04:32:41.244Z,99723.56
2022-12-31T04:33:43.074Z,99734.59
2022-12-31T04:34:45.761Z,99727.19
2022-12-31T04:35:48.905Z,99713.47
2022-12-31T04:36:51.598Z,99718.69
2022-12-31T04:37:54.275Z,99722.88
2022-12-31T04:38:57.179Z,99719.41
2022-12-31T04:40:05.122Z,99714.94
2022-12-31T04:41:20.906Z,99727.94
2022-12-31T04:42:23.765Z,99720.59
2022-12-31T04:43:25.449Z,99727.31
2022-12-31T04:44:28.130Z,99722.41
2022-12-31T04:45:29.918Z,99700.31
2022-12-31T04:46:33.900Z,99719.38
2022-12-31T04:47:36.592Z,99760.59
2022-12-31T04:48:38.457Z,99726.06
2022-12-31T04:49:41.189Z,99743.94
2022-12-31T04:50:42.884Z,99732.56
2022-12-31T04:51:46.975Z,99734.81
2022-12-31T04:52:48.677Z,99729.84
2022-12-31T04:53:51.640Z,99732.81
2022-12-31T04:54:53.381Z,99744.22
2022-12-31T04:55:56.474Z,99747.09
2022-12-31T04:56:59.162Z,99739.44
2022-12-31T04:58:01.088Z,99734.63
2022-12-31T04:59:04.424Z,99724.78
2022-12-31T05:00:08.028Z,99719.66
2022-12-31T05:01:11.225Z,99724.91
2022-12-31T05:02:13.184Z,99726.38
2022-12-31T05:03:16.041Z,99705.28
2022-12-31T05:04:18.716Z,99723.75
2022-12-31T05:05:20.523Z,99731.66
2022-12-31T05:06:24.053Z,99736.69
2022-12-31T05:07:27.129Z,99722.66
2022-12-31T05:08:29.993Z,99738.50
2022-12-31T05:09:31.709Z,99744.84
2022-12-31T05:10:34.377Z,99739.44
2022-12-31T05:11:37.948Z,99734.78
2022-12-31T05:12:39.702Z,99736.81
2022-12-31T05:13:42.732Z,99754.09
2022-12-31T05:14:44.419Z,99747.53
2022-12-31T05:15:47.556Z,99753.03
2022-12-31T05:16:50.543Z,99754.22
2022-12-31T05:17:52.359Z,99753.00
2022-12-31T05:18:55.174Z,99754.34
2022-12-31T05:19:56.893Z,99748.81
2022-12-31T05:20:59.627Z,99756.25
2022-12-31T05:22:20.094Z,99761.19
2022-12-31T05:23:24.274Z,99760.81
2022-12-31T05:24:27.002Z,99767.28
2022-12-31T05:25:28.805Z,99765.38
2022-12-31T05:26:31.766Z,99757.94
2022-12-31T05:27:34.036Z,99778.19
2022-12-31T05:28:36.692Z,99757.56
2022-12-31T05:29:38.416Z,99771.47
2022-12-31T05:30:41.238Z,99777.47
2022-12-31T05:31:43.905Z,99786.59
2022-12-31T05:32:45.718Z,99776.41
2022-12-31T05:33:48.365Z,99768.03
2022-12-31T05:34:50.021Z,99764.44
2022-12-31T05:35:52.760Z,99763.00
2022-12-31T05:36:54.441Z,99763.72
2022-12-31T05:37:59.273Z,99777.16
2022-12-31T05:39:02.319Z,99775.47
2022-12-31T05:40:05.915Z,99750.47
2022-12-31T05:41:08.318Z,99771.34
2022-12-31T05:42:11.012Z,99773.78
2022-12-31T05:43:13.677Z,99778.00
2022-12-31T05:44:15.424Z,99760.97
2022-12-31T05:45:18.622Z,99778.09
2022-12-31T05:46:20.329Z,99768.88
2022-12-31T05:47:23.180Z,99763.72
2022-12-31T05:48:25.855Z,99763.72
2022-12-31T05:49:27.502Z,99759.41
2022-12-31T05:50:30.215Z,99772.94
2022-12-31T05:51:31.945Z,99760.59
2022-12-31T05:52:34.678Z,99764.44
2022-12-31T05:53:36.418Z,99761.91
2022-12-31T05:54:40.640Z,99792.16
2022-12-31T05:55:42.337Z,99741.03
2022-12-31T05:56:45.038Z,99758.81
2022-12-31T05:57:46.746Z,99760.25
2022-12-31T05:58:49.400Z,99755.53
2022-12-31T05:59:53.467Z,99757.72
2022-12-31T06:00:56.388Z,99763.09
2022-12-31T06:01:58.192Z,99750.16
2022-12-31T06:03:01.003Z,99748.22
2022-12-31T06:04:03.310Z,99777.63
2022-12-31T06:05:06.680Z,99741.50
2022-12-31T06:06:08.414Z,99758.84
2022-12-31T06:07:11.072Z,99756.56
2022-12-31T06:08:12.947Z,99757.16
2022-12-31T06:09:19.104Z,99744.03
2022-12-31T06:10:22.209Z,99771.16
2022-12-31T06:11:24.981Z,99758.19
2022-12-31T06:12:29.465Z,99751.59
2022-12-31T06:13:32.248Z,99773.81
2022-12-31T06:14:34.226Z,99776.56
2022-12-31T06:15:39.429Z,99781.09
2022-12-31T06:16:41.218Z,99780.38
2022-12-31T06:17:43.992Z,99776.31
2022-12-31T06:18:47.499Z,99786.88
2022-12-31T06:19:50.221Z,99838.47
2022-12-31T06:20:51.879Z,99786.41
2022-12-31T06:21:54.565Z,99810.53
2022-12-31T06:22:56.257Z,99781.81
2022-12-31T06:23:59.252Z,99787.72
2022-12-31T06:25:01.912Z,99769.22
2022-12-31T06:26:05.695Z,99776.31
2022-12-31T06:27:10.755Z,99766.03
2022-12-31T06:28:20.039Z,99775.63
2022-12-31T06:29:22.138Z,99790.41
2022-12-31T06:30:24.875Z,99788.50
2022-12-31T06:31:26.653Z,99781.97
2022-12-31T06:32:29.334Z,99792.09
2022-12-31T06:33:31.621Z,99790.28
2022-12-31T06:34:34.561Z,99803.94
2022-12-31T06:35:36.316Z,99793.75
2022-12-31T06:36:39.031Z,99826.38
2022-12-31T06:37:40.778Z,99806.00
2022-12-31T06:38:44.810Z,99819.31
2022-12-31T06:39:47.653Z,99799.75
2022-12-31T06:40:49.371Z,99814.06
2022-12-31T06:41:53.516Z,99829.47
2022-12-31T06:42:59.832Z,99809.56
2022-12-31T06:44:02.932Z,99812.09
2022-12-31T06:45:08.591Z,99819.81
2022-12-31T06:46:12.887Z,99819.31
2022-12-31T06:47:14.675Z,99816.81
2022-12-31T06:48:17.665Z,99820.19
2022-12-31T06:49:19.517Z,99816.94
2022-12-31T06:50:22.222Z,99833.38
2022-12-31T06:51:23.881Z,99816.81
2022-12-31T06:52:26.600Z,99831.31
2022-12-31T06:53:28.328Z,99831.22
2022-12-31T06:54:31.155Z,99841.78
2022-12-31T06:55:33.532Z,99827.75
2022-12-31T06:56:36.797Z,99820.31
2022-12-31T06:57:41.742Z,99823.75
2022-12-31T06:58:43.984Z,99816.94
2022-12-31T06:59:47.389Z,99840.34
2022-12-31T07:00:54.195Z,99852.81
2022-12-31T07:02:13.503Z,99824.84
2022-12-31T07:03:22.549Z,99842.63
2022-12-31T07:04:56.680Z,99819.19
2022-12-31T07:06:02.370Z,99828.81
2022-12-31T07:07:09.169Z,99813.78
2022-12-31T07:08:20.686Z,99812.47
2022-12-31T07:09:28.863Z,99821.50
2022-12-31T07:10:38.223Z,99827.25
2022-12-31T07:11:46.695Z,99825.22
2022-12-31T07:12:57.725Z,99832.78
2022-12-31T07:14:16.551Z,99843.00
2022-12-31T07:15:24.380Z,99825.81
2022-12-31T07:16:39.755Z,99830.97
2022-12-31T07:17:47.888Z,99831.69
2022-12-31T07:18:57.273Z,99834.69
2022-12-31T07:20:02.875Z,99837.72
2022-12-31T07:21:09.994Z,99825.09
2022-12-31T07:22:15.716Z,99837.34
2022-12-31T07:23:18.356Z,99830.25
2022-12-31T07:24:21.884Z,99826.19
2022-12-31T07:25:24.561Z,99845.00
2022-12-31T07:26:41.162Z,99848.75
2022-12-31T07:27:54.702Z,99834.94
2022-12-31T07:29:02.398Z,99824.25
2022-12-31T07:30:08.433Z,99861.47
2022-12-31T07:31:17.860Z,99837.31
2022-12-31T07:32:30.275Z,99848.88
2022-12-31T07:33:41.466Z,99848.38
2022-12-31T07:34:51.160Z,99866.16
2022-12-31T07:36:00.412Z,99873.72
2022-12-31T07:37:08.266Z,99874.19
2022-12-31T07:38:16.988Z,99882.47
2022-12-31T07:39:24.290Z,99855.47
2022-12-31T07:40:33.469Z,99849.47
2022-12-31T07:41:47.652Z,99880.56
2022-12-31T07:43:05.705Z,99867.47
2022-12-31T07:44:16.229Z,99870.59
2022-12-31T07:45:21.990Z,99873.09
2022-12-31T07:46:30.534Z,99869.25
2022-12-31T07:47:33.783Z,99872.28
2022-12-31T07:48:35.924Z,99874.91
2022-12-31T07:49:41.362Z,99870.72
2022-12-31T07:50:43.660Z,99891.13
2022-12-31T07:51:47.021Z,99867.38
2022-12-31T07:52:50.249Z,99884.78
2022-12-31T07:53:52.177Z,99878.88
2022-12-31T07:54:54.954Z,99879.38
2022-12-31T07:55:59.235Z,99876.97
2022-12-31T07:57:01.988Z,99870.38
2022-12-31T07:58:15.676Z,99877.94
2022-12-31T07:59:29.771Z,99873.84
2022-12-31T08:00:31.681Z,99876.72
2022-12-31T08:01:42.267Z,99884.31
2022-12-31T08:02:58.428Z,99883.81
2022-12-31T08:04:07.078Z,99871.56
2022-12-31T08:05:14.137Z,99887.41
2022-12-31T08:06:22.335Z,99884.16
2022-12-31T08:07:30.036Z,99887.78
2022-12-31T08:08:37.683Z,99882.13
2022-12-31T08:09:47.039Z,99900.72
2022-12-31T08:11:04.046Z,99917.53
2022-12-31T08:12:07.865Z,99894.97
2022-12-31T08:13:13.253Z,99877.44
2022-12-31T08:14:15.728Z,99896.53
2022-12-31T08:15:22.035Z,99894.50
2022-12-31T08:16:28.793Z,99895.56
2022-12-31T08:17:31.742Z,99941.41
2022-12-31T08:18:33.954Z,99927.00
2022-12-31T08:19:37.191Z,99916.47
2022-12-31T08:20:45.916Z,99917.03
2022-12-31T08:22:00.876Z,99923.91
2022-12-31T08:23:15.740Z,99927.16
2022-12-31T08:24:23.461Z,99922.34
2022-12-31T08:25:30.531Z,99933.38
2022-12-31T08:26:38.343Z,99936.28
2022-12-31T08:27:46.060Z,99925.69
2022-12-31T08:29:00.388Z,99960.28
2022-12-31T08:30:08.407Z,99945.41
2022-12-31T08:31:16.668Z,99941.19
2022-12-31T08:32:23.498Z,99940.19
2022-12-31T08:33:30.621Z,99937.09
2022-12-31T08:34:36.549Z,99941.66
2022-12-31T08:35:58.336Z,99940.72
2022-12-31T08:37:03.571Z,99953.91
2022-12-31T08:38:11.771Z,99939.34
2022-12-31T08:39:18.938Z,99951.25
2022-12-31T08:40:26.782Z,99940.09
2022-12-31T08:41:30.149Z,99950.31
2022-12-31T08:42:38.231Z,99960.72
2022-12-31T08:43:49.523Z,99936.50
2022-12-31T08:45:00.657Z,99928.72
2022-12-31T08:46:03.811Z,99937.38
2022-12-31T08:47:13.095Z,99940.00
2022-12-31T08:48:25.619Z,99939.66
2022-12-31T08:49:29.698Z,99930.16
2022-12-31T08:50:31.851Z,99934.97
2022-12-31T08:51:35.034Z,99939.03
2022-12-31T08:52:37.358Z,99935.34
2022-12-31T08:53:40.459Z,99936.66
2022-12-31T08:54:42.716Z,99935.34
2022-12-31T08:55:45.865Z,99933.31
2022-12-31T08:56:53.053Z,99937.00
2022-12-31T08:58:05.089Z,99946.38
2022-12-31T08:59:25.013Z,99935.34
2022-12-31T09:00:28.446Z,99919.97
2022-12-31T09:01:36.040Z,99919.84
2022-12-31T09:02:51.335Z,99923.09
2022-12-31T09:04:07.120Z,99924.19
2022-12-31T09:05:17.686Z,99934.75
2022-12-31T09:06:25.024Z,99937.00
2022-12-31T09:07:32.666Z,99901.69
2022-12-31T09:08:39.743Z,99931.84
2022-12-31T09:09:48.228Z,99938.97
2022-12-31T09:10:54.463Z,99954.31
2022-12-31T09:12:04.315Z,99932.81
2022-12-31T09:13:11.623Z,99958.28
2022-12-31T09:14:22.754Z,99944.09
2022-12-31T09:15:30.055Z,99944.72
2022-12-31T09:16:40.491Z,99942.09
2022-12-31T09:17:47.451Z,99945.44
2022-12-31T09:18:50.165Z,99950.84
2022-12-31T09:19:52.412Z,99946.16
2022-12-31T09:20:55.459Z,99951.81
2022-12-31T09:21:58.713Z,99964.06
2022-12-31T09:23:03.477Z,99949.50
2022-12-31T09:24:09.513Z,99943.03
2022-12-31T09:25:15.324Z,99957.47
2022-12-31T09:26:31.971Z,99951.91
2022-12-31T09:27:38.516Z,99949.91
2022-12-31T09:28:49.656Z,99959.16
2022-12-31T09:29:55.659Z,99960.47
2022-12-31T09:31:04.287Z,99964.31
2022-12-31T09:32:10.452Z,99972.59
2022-12-31T09:33:20.559Z,99977.88
2022-12-31T09:34:26.653Z,99979.56
2022-12-31T09:35:35.890Z,99973.19
2022-12-31T09:36:41.205Z,99985.47
2022-12-31T09:37:47.597Z,99981.59
2022-12-31T09:38:54.020Z,99980.16
2022-12-31T09:39:58.463Z,99965.84
2022-12-31T09:41:16.236Z,99968.78
2022-12-31T09:42:35.380Z,100018.25
2022-12-31T09:44:21.342Z,99984.25
2022-12-31T09:45:37.539Z,99976.94
2022-12-31T09:47:16.801Z,99959.00
2022-12-31T09:49:02.205Z,99981.88
2022-12-31T09:50:33.143Z,99977.56
2022-12-31T09:51:40.079Z,99968.78
2022-12-31T09:52:52.113Z,100002.66
2022-12-31T09:54:18.609Z,99987.97
2022-12-31T09:55:33.225Z,99989.78
2022-12-31T09:56:38.274Z,99995.69
2022-12-31T09:57:41.805Z,99998.44
2022-12-31T09:58:48.544Z,99980.06
2022-12-31T09:59:55.836Z,99985.94
2022-12-31T10:01:03.545Z,99981.75
2022-12-31T10:02:17.838Z,99994.13
2022-12-31T10:03:31.087Z,99988.94
2022-12-31T10:04:47.813Z,99977.66
2022-12-31T10:06:00.691Z,99980.03
2022-12-31T10:07:10.990Z,99977.28
2022-12-31T10:08:24.736Z,99987.72
2022-12-31T10:09:40.672Z,99994.59
2022-12-31T10:10:47.287Z,99981.00
2022-12-31T10:12:01.590Z,99984.72
2022-12-31T10:13:30.936Z,99990.34
2022-12-31T10:14:53.896Z,99992.88
2022-12-31T10:16:06.335Z,99982.41
2022-12-31T10:17:24.415Z,99989.63
2022-12-31T10:18:36.812Z,100003.47
2022-12-31T10:19:52.982Z,99994.19
2022-12-31T10:21:06.688Z,100006.22
2022-12-31T10:22:19.771Z,99998.63
2022-12-31T10:23:32.084Z,99999.63
2022-12-31T10:24:54.291Z,99991.53
2022-12-31T10:26:15.199Z,100004.53
2022-12-31T10:27:42.316Z,99973.56
2022-12-31T10:28:50.123Z,99975.38
2022-12-31T10:29:59.412Z,99983.06
2022-12-31T10:31:11.746Z,99984.63
2022-12-31T10:32:33.174Z,99980.06
2022-12-31T10:33:44.544Z,99979.94
2022-12-31T10:34:55.636Z,99986.44
2022-12-31T10:36:04.884Z,99976.44
2022-12-31T10:37:09.367Z,99983.66
2022-12-31T10:38:23.981Z,99990.91
2022-12-31T10:39:38.718Z,99987.53
2022-12-31T10:41:07.210Z,99994.91
2022-12-31T10:42:48.869Z,99986.28
2022-12-31T10:44:03.323Z,100000.63
2022-12-31T10:45:41.776Z,99989.19
2022-12-31T10:47:16.084Z,100013.16
2022-12-31T10:48:44.326Z,99995.84
2022-12-31T10:50:05.476Z,100003.38
2022-12-31T10:51:38.376Z,99992.56
2022-12-31T10:53:01.327Z,100022.03
2022-12-31T10:54:49.510Z,100007.25
2022-12-31T10:56:01.168Z,99985.34
2022-12-31T10:57:27.301Z,99989.59
2022-12-31T10:58:46.212Z,99993.72
2022-12-31T11:00:13.060Z,99978.47
2022-12-31T11:01:19.242Z,99968.56
2022-12-31T11:02:50.972Z,99981.41
2022-12-31T11:04:16.558Z,99993.25
2022-12-31T11:05:48.384Z,99986.44
2022-12-31T11:07:19.795Z,99975.56
2022-12-31T11:08:46.491Z,99974.09
2022-12-31T11:10:21.752Z,99985.28
2022-12-31T11:11:32.868Z,99996.19
2022-12-31T11:12:50.612Z,100000.25
2022-12-31T11:14:09.946Z,99979.91
2022-12-31T11:15:40.142Z,99983.69
2022-12-31T11:16:53.838Z,99994.09
2022-12-31T11:18:02.141Z,100000.50
2022-12-31T11:19:11.147Z,100013.63
2022-12-31T11:20:29.300Z,100015.13
2022-12-31T11:21:42.458Z,99986.22
2022-12-31T11:22:56.322Z,100010.50
2022-12-31T11:24:04.496Z,100011.34
2022-12-31T11:25:24.372Z,100000.06
2022-12-31T11:26:41.369Z,100011.16
2022-12-31T11:27:51.807Z,99985.03
2022-12-31T11:29:11.696Z,100031.06
2022-12-31T11:30:20.946Z,99999.59
2022-12-31T11:31:40.108Z,100006.03
2022-12-31T11:32:52.727Z,100013.63
2022-12-31T11:34:10.716Z,100003.25
2022-12-31T11:35:26.689Z,99999.66
2022-12-31T11:36:37.289Z,100006.09
2022-12-31T11:37:45.556Z,99998.53
2022-12-31T11:38:52.437Z,100005.69
2022-12-31T11:40:02.608Z,99996.69
2022-12-31T11:41:09.114Z,100002.88
2022-12-31T11:42:19.485Z,99987.19
2022-12-31T11:43:29.868Z,100008.09
2022-12-31T11:44:39.161Z,99991.56
2022-12-31T11:45:54.066Z,100013.47
2022-12-31T11:47:08.433Z,99994.44
2022-12-31T11:48:31.660Z,99992.19
2022-12-31T11:49:54.134Z,99997.28
2022-12-31T11:51:05.194Z,100002.75
2022-12-31T11:52:21.620Z,100002.94
2022-12-31T11:53:51.950Z,99999.03
2022-12-31T11:55:02.261Z,99964.88
2022-12-31T11:56:17.667Z,100005.09
2022-12-31T11:57:27.140Z,99971.84
2022-12-31T11:58:30.265Z,99965.88
2022-12-31T11:59:31.978Z,99975.97
2022-12-31T12:00:35.009Z,99962.34
2022-12-31T12:01:44.073Z,99966.81
2022-12-31T12:02:50.526Z,99967.72
2022-12-31T12:03:53.243Z,99966.19
2022-12-31T12:04:57.874Z,99953.81
2022-12-31T12:06:00.740Z,99962.22
2022-12-31T12:07:02.492Z,99948.09
2022-12-31T12:08:05.315Z,99974.59
2022-12-31T12:09:11.931Z,99973.13
2022-12-31T12:10:35.252Z,99969.97
2022-12-31T12:11:40.458Z,99973.56
2022-12-31T12:12:45.408Z,99968.56
2022-12-31T12:13:48.511Z,99968.69
2022-12-31T12:14:52.824Z,99964.53
2022-12-31T12:15:57.915Z,99973.88
2022-12-31T12:17:04.652Z,99961.44
2022-12-31T12:18:10.575Z,99960.94
2022-12-31T12:19:18.924Z,99964.31
2022-12-31T12:20:29.387Z,99977.09
2022-12-31T12:21:32.375Z,99969.25
2022-12-31T12:22:34.139Z,99954.28
2022-12-31T12:23:36.894Z,99966.88
2022-12-31T12:24:38.933Z,99966.22
2022-12-31T12:25:44.569Z,99956.09
2022-12-31T12:26:46.239Z,99970.13
2022-12-31T12:27:49.257Z,99943.72
2022-12-31T12:28:52.053Z,99963.91
2022-12-31T12:29:54.813Z,99958.91
2022-12-31T12:31:00.723Z,99956.91
2022-12-31T12:32:05.671Z,99946.06
2022-12-31T12:33:17.516Z,99939.03
2022-12-31T12:34:24.302Z,99947.44
2022-12-31T12:35:29.349Z,99940.34
2022-12-31T12:36:33.150Z,99945.47
2022-12-31T12:37:35.369Z,99949.88
2022-12-31T12:38:38.865Z,99943.59
2022-12-31T12:39:40.561Z,99948.97
2022-12-31T12:40:55.124Z,99933.78
2022-12-31T12:42:03.551Z,99947.72
2022-12-31T12:43:06.827Z,99945.25
2022-12-31T12:44:15.150Z,99951.69
2022-12-31T12:45:18.987Z,99949.97
2022-12-31T12:46:24.681Z,99955.13
2022-12-31T12:47:27.473Z,99956.28
2022-12-31T12:48:36.845Z,99951.56
2022-12-31T12:49:40.895Z,99953.38
2022-12-31T12:50:45.951Z,99961.44
2022-12-31T12:52:04.436Z,99951.75
2022-12-31T12:53:15.915Z,99952.34
2022-12-31T12:54:30.377Z,99956.28
2022-12-31T12:55:38.978Z,99951.56
2022-12-31T12:56:49.278Z,99957.66
2022-12-31T12:57:56.915Z,99946.38
2022-12-31T12:59:24.609Z,99943.59
2022-12-31T13:00:30.861Z,99957.25
2022-12-31T13:01:36.835Z,99949.22
2022-12-31T13:02:58.059Z,99951.41
2022-12-31T13:04:36.196Z,99942.03
2022-12-31T13:05:49.582Z,99948.75
2022-12-31T13:07:02.846Z,99945.19
2022-12-31T13:08:12.779Z,99946.34
2022-12-31T13:09:25.672Z,99941.63